Time;durP1;ratioP1;P1;durP2;ratioP2;P2;SDS_P1;SDS_P2;PMS_P1;PMS_P2;Temp;Humidity;BMP_temperature;BMP_pressure;BME280_temperature;BME280_humidity;BME280_pressure;Samples;Min_cycle;Max_cycle;Signal;HPM_P1;HPM_P2
2023/10/04 00:01:31;;;;;;;4.13;4.03;;;;;;;;;;4146627;28;20414;-62
2023/10/04 00:03:33;;;;;;;4.15;3.88;;;;;;;;;;4160128;28;20086;-62
2023/10/04 00:05:36;;;;;;;3.63;3.53;;;;;;;;;;4163265;28;20049;-62
2023/10/04 00:07:39;;;;;;;5.40;3.97;;;;;;;;;;4163911;28;20099;-62
2023/10/04 00:09:41;;;;;;;3.53;3.22;;;;;;;;;;4166181;28;20045;-63
2023/10/04 00:11:43;;;;;;;;;;;;;;;;;;4166650;28;20041;-62
2023/10/04 00:13:46;;;;;;;4.05;3.85;;;;;;;;;;4166135;28;19925;-62
2023/10/04 00:15:48;;;;;;;3.60;3.50;;;;;;;;;;4166400;28;20065;-62
2023/10/04 00:17:52;;;;;;;4.18;4.07;;;;;;;;;;4166031;28;20037;-62
2023/10/04 00:19:55;;;;;;;4.45;3.58;;;;;;;;;;4166079;28;20043;-63
2023/10/04 00:21:57;;;;;;;3.72;3.53;;;;;;;;;;4137866;28;20047;-61
2023/10/04 00:23:59;;;;;;;4.00;3.90;;;;;;;;;;4133477;28;20064;-62
2023/10/04 00:26:00;;;;;;;4.00;3.90;;;;;;;;;;4133410;28;20447;-62
2023/10/04 00:28:02;;;;;;;3.67;3.57;;;;;;;;;;4133304;28;20038;-62
2023/10/04 00:30:05;;;;;;;2.53;2.33;;;;;;;;;;4133391;28;20053;-62
2023/10/04 00:32:07;;;;;;;;;;;;;;;;;;4134084;28;20398;-63
2023/10/04 00:34:08;;;;;;;3.17;2.90;;;;;;;;;;4149407;28;19922;-63
2023/10/04 00:36:13;;;;;;;3.88;3.65;;;;;;;;;;4149438;28;20042;-62
2023/10/04 00:38:16;;;;;;;4.22;3.42;;;;;;;;;;4149390;28;20050;-63
2023/10/04 00:40:23;;;;;;;3.83;3.63;;;;;;;;;;4148950;28;20046;-62
2023/10/04 00:42:26;;;;;;;3.72;3.42;;;;;;;;;;4148220;28;20522;-62
2023/10/04 00:44:28;;;;;;;3.22;3.15;;;;;;;;;;4149353;28;20048;-62
2023/10/04 00:46:33;;;;;;;3.53;3.43;;;;;;;;;;4149097;28;20042;-62
2023/10/04 00:48:36;;;;;;;3.65;3.55;;;;;;;;;;4149207;28;20050;-62
2023/10/04 00:50:38;;;;;;;3.38;3.28;;;;;;;;;;4149202;28;20456;-62
2023/10/04 00:52:41;;;;;;;3.80;3.70;;;;;;;;;;4149161;28;20050;-61
2023/10/04 00:54:43;;;;;;;4.40;4.13;;;;;;;;;;4149179;28;20115;-63
2023/10/04 00:56:46;;;;;;;3.40;3.15;;;;;;;;;;4149151;28;20046;-63
2023/10/04 00:58:48;;;;;;;3.88;3.67;;;;;;;;;;4148211;28;20132;-63
2023/10/04 01:00:50;;;;;;;4.10;3.80;;;;;;;;;;4149261;28;20041;-62
2023/10/04 01:02:52;;;;;;;3.35;3.25;;;;;;;;;;4155526;28;20111;-64
2023/10/04 01:04:54;;;;;;;3.67;3.47;;;;;;;;;;4148489;28;20136;-63
2023/10/04 01:06:57;;;;;;;3.38;3.17;;;;;;;;;;4149144;28;20041;-62
2023/10/04 01:09:00;;;;;;;4.55;4.18;;;;;;;;;;4149167;28;20048;-62
2023/10/04 01:11:02;;;;;;;5.65;3.67;;;;;;;;;;4149043;28;20117;-62
2023/10/04 01:13:09;;;;;;;4.35;4.25;;;;;;;;;;4149052;28;20046;-62
2023/10/04 01:15:31;;;;;;;4.07;3.75;;;;;;;;;;4149365;28;20038;-62
2023/10/04 01:17:35;;;;;;;4.20;3.92;;;;;;;;;;4155088;28;20508;-63
2023/10/04 01:19:37;;;;;;;4.80;4.50;;;;;;;;;;4132042;28;20490;-62
2023/10/04 01:21:39;;;;;;;4.03;3.88;;;;;;;;;;4132789;28;20042;-62
2023/10/04 01:23:41;;;;;;;4.97;4.57;;;;;;;;;;4132741;28;20046;-63
2023/10/04 01:25:44;;;;;;;4.82;4.43;;;;;;;;;;4132749;28;20050;-62
2023/10/04 01:27:45;;;;;;;4.40;4.25;;;;;;;;;;4131223;28;20058;-62
2023/10/04 01:29:48;;;;;;;4.78;4.68;;;;;;;;;;4132477;28;20041;-62
2023/10/04 01:31:50;;;;;;;4.75;4.60;;;;;;;;;;4132724;28;20105;-63
2023/10/04 01:33:52;;;;;;;4.83;4.73;;;;;;;;;;4146874;28;20038;-62
2023/10/04 01:35:54;;;;;;;5.90;5.63;;;;;;;;;;4148498;28;20030;-62
2023/10/04 01:37:56;;;;;;;4.95;4.80;;;;;;;;;;4148846;28;20042;-63
2023/10/04 01:39:58;;;;;;;4.65;4.40;;;;;;;;;;4148381;28;20076;-62
2023/10/04 01:42:00;;;;;;;3.60;3.50;;;;;;;;;;4148761;28;20046;-62
2023/10/04 01:44:03;;;;;;;;;;;;;;;;;;4148948;28;20540;-63
2023/10/04 01:46:04;;;;;;;5.20;5.00;;;;;;;;;;4148247;28;20397;-62
2023/10/04 01:48:06;;;;;;;5.07;4.97;;;;;;;;;;4148364;28;20054;-62
2023/10/04 01:50:09;;;;;;;5.22;4.97;;;;;;;;;;4148463;28;20066;-63
2023/10/04 01:52:11;;;;;;;6.18;5.85;;;;;;;;;;4148321;28;20050;-62
2023/10/04 01:54:15;;;;;;;5.70;5.07;;;;;;;;;;4148409;28;20121;-62
2023/10/04 01:56:17;;;;;;;4.93;4.72;;;;;;;;;;4148342;28;20281;-63
2023/10/04 01:58:23;;;;;;;5.20;5.10;;;;;;;;;;4148181;28;20042;-62
2023/10/04 02:00:28;;;;;;;5.28;5.18;;;;;;;;;;4146996;28;20465;-62
2023/10/04 02:02:29;;;;;;;5.18;4.97;;;;;;;;;;4152550;28;20045;-62
2023/10/04 02:04:31;;;;;;;4.90;4.80;;;;;;;;;;4163186;28;20103;-63
2023/10/04 02:06:33;;;;;;;5.28;5.07;;;;;;;;;;4164768;28;20083;-62
2023/10/04 02:08:35;;;;;;;5.93;4.68;;;;;;;;;;4164273;28;20043;-63
2023/10/04 02:10:36;;;;;;;5.57;5.13;;;;;;;;;;4164379;28;20037;-62
2023/10/04 02:12:38;;;;;;;5.53;5.30;;;;;;;;;;4164206;28;20041;-62
2023/10/04 02:14:40;;;;;;;6.05;5.75;;;;;;;;;;4132799;28;20293;-62
2023/10/04 02:16:42;;;;;;;5.53;5.43;;;;;;;;;;4131854;28;20048;-62
2023/10/04 02:18:44;;;;;;;7.47;7.17;;;;;;;;;;4131828;28;20061;-63
2023/10/04 02:20:53;;;;;;;5.82;5.72;;;;;;;;;;4131618;28;20046;-63
2023/10/04 02:22:56;;;;;;;7.47;7.38;;;;;;;;;;4131725;28;20406;-62
2023/10/04 02:24:57;;;;;;;7.45;7.35;;;;;;;;;;4131726;28;20050;-62
2023/10/04 02:27:01;;;;;;;8.60;8.40;;;;;;;;;;4131683;28;20101;-62
2023/10/04 02:29:04;;;;;;;8.27;7.93;;;;;;;;;;4137381;28;20414;-62
2023/10/04 02:31:06;;;;;;;9.25;8.85;;;;;;;;;;4147777;28;20093;-61
2023/10/04 02:33:13;;;;;;;8.57;8.38;;;;;;;;;;4147675;28;20067;-62
2023/10/04 02:35:34;;;;;;;7.13;7.03;;;;;;;;;;4147726;28;20096;-63
2023/10/04 02:37:35;;;;;;;8.32;7.97;;;;;;;;;;4147754;28;20072;-63
2023/10/04 02:39:37;;;;;;;8.30;8.20;;;;;;;;;;4147586;28;20050;-62
2023/10/04 02:41:41;;;;;;;9.32;9.02;;;;;;;;;;4147751;28;20542;-62
2023/10/04 02:43:43;;;;;;;9.45;9.32;;;;;;;;;;4147747;28;20042;-62
2023/10/04 02:45:47;;;;;;;10.20;10.00;;;;;;;;;;4147717;28;20571;-63
2023/10/04 02:47:49;;;;;;;11.43;11.23;;;;;;;;;;4147652;28;20046;-62
2023/10/04 02:49:51;;;;;;;11.55;11.27;;;;;;;;;;4147594;28;20057;-62
2023/10/04 02:51:52;;;;;;;11.97;11.73;;;;;;;;;;4147683;28;20096;-62
2023/10/04 02:53:54;;;;;;;13.60;13.30;;;;;;;;;;4147648;28;20034;-62
2023/10/04 02:55:58;;;;;;;13.23;13.02;;;;;;;;;;4147681;28;20046;-63
2023/10/04 02:58:00;;;;;;;14.32;14.10;;;;;;;;;;4147646;28;20041;-62
2023/10/04 03:00:09;;;;;;;;;;;;;;;;;;4146728;28;20050;-63
2023/10/04 03:02:11;;;;;;;14.65;14.30;;;;;;;;;;4147445;28;19921;-62
2023/10/04 03:04:15;;;;;;;16.37;16.07;;;;;;;;;;4147692;28;20054;-61
2023/10/04 03:06:19;;;;;;;15.20;14.73;;;;;;;;;;4147511;28;20046;-62
2023/10/04 03:08:23;;;;;;;15.80;15.40;;;;;;;;;;4147772;28;20066;-62
2023/10/04 03:10:24;;;;;;;15.02;14.63;;;;;;;;;;4147271;28;20058;-62
2023/10/04 03:12:26;;;;;;;15.10;14.73;;;;;;;;;;4147552;28;20041;-62
2023/10/04 03:14:29;;;;;;;16.10;15.77;;;;;;;;;;4147622;28;20371;-62
2023/10/04 03:16:31;;;;;;;16.13;15.75;;;;;;;;;;4146489;28;20100;-62
2023/10/04 03:18:37;;;;;;;15.43;14.83;;;;;;;;;;4147598;28;20042;-62
2023/10/04 03:20:45;;;;;;;14.65;14.30;;;;;;;;;;4147586;28;20296;-62
2023/10/04 03:22:47;;;;;;;13.25;13.05;;;;;;;;;;4147658;28;20053;-62
2023/10/04 03:24:49;;;;;;;;;;;;;;;;;;4147618;28;20042;-62
2023/10/04 03:26:51;;;;;;;15.63;15.35;;;;;;;;;;4147258;28;19944;-62
2023/10/04 03:28:53;;;;;;;14.40;14.15;;;;;;;;;;4147182;28;20096;-61
2023/10/04 03:30:55;;;;;;;14.07;13.87;;;;;;;;;;4147347;28;20046;-62
2023/10/04 03:32:56;;;;;;;17.60;16.90;;;;;;;;;;4147359;28;20050;-62
2023/10/04 03:35:00;;;;;;;14.05;13.85;;;;;;;;;;4147202;28;20092;-63
2023/10/04 03:37:14;;;;;;;17.50;16.90;;;;;;;;;;4142363;28;20046;-63
2023/10/04 03:39:16;;;;;;;17.17;16.85;;;;;;;;;;4130810;28;20046;-62
2023/10/04 03:41:19;;;;;;;17.00;16.13;;;;;;;;;;4130961;28;20100;-62
2023/10/04 03:43:21;;;;;;;16.40;15.68;;;;;;;;;;4132706;28;20050;-62
2023/10/04 03:45:23;;;;;;;16.13;15.63;;;;;;;;;;4134069;28;20046;-62
2023/10/04 03:47:25;;;;;;;17.38;16.92;;;;;;;;;;4145476;28;20458;-62
2023/10/04 03:49:27;;;;;;;;;;;;;;;;;;4150597;28;20056;-62
2023/10/04 03:51:29;;;;;;;17.65;17.25;;;;;;;;;;4149065;28;20012;-63
2023/10/04 03:53:31;;;;;;;17.02;16.42;;;;;;;;;;4150363;28;20521;-62
2023/10/04 03:55:33;;;;;;;14.93;14.73;;;;;;;;;;4150168;28;20041;-62
2023/10/04 03:57:34;;;;;;;16.95;16.20;;;;;;;;;;4150276;28;20680;-62
2023/10/04 03:59:36;;;;;;;14.97;14.57;;;;;;;;;;4150198;28;20136;-62
2023/10/04 04:01:38;;;;;;;15.60;15.00;;;;;;;;;;4149831;28;20354;-61
2023/10/04 04:03:40;;;;;;;15.98;15.55;;;;;;;;;;4164353;28;20120;-62
2023/10/04 04:05:42;;;;;;;15.85;15.55;;;;;;;;;;4158766;28;20042;-62
2023/10/04 04:07:44;;;;;;;17.17;16.60;;;;;;;;;;4133702;28;20514;-62
2023/10/04 04:09:46;;;;;;;17.52;17.20;;;;;;;;;;4133669;28;20081;-62
2023/10/04 04:11:48;;;;;;;17.30;16.85;;;;;;;;;;4142775;28;20099;-62
2023/10/04 04:13:49;;;;;;;17.35;16.77;;;;;;;;;;4148986;28;20149;-63
2023/10/04 04:15:51;;;;;;;17.23;16.70;;;;;;;;;;4143455;28;20115;-63
2023/10/04 04:17:54;;;;;;;17.17;16.45;;;;;;;;;;4149799;28;20045;-62
2023/10/04 04:19:56;;;;;;;17.02;16.73;;;;;;;;;;4149795;28;20133;-62
2023/10/04 04:21:57;;;;;;;17.30;16.77;;;;;;;;;;4150139;28;20046;-61
2023/10/04 04:23:59;;;;;;;16.97;16.43;;;;;;;;;;4146196;28;20358;-62
2023/10/04 04:26:05;;;;;;;14.93;14.70;;;;;;;;;;4148624;28;20301;-61
2023/10/04 04:28:12;;;;;;;16.17;15.45;;;;;;;;;;4148400;28;20050;-63
2023/10/04 04:30:19;;;;;;;15.25;14.85;;;;;;;;;;4148299;28;20588;-64
2023/10/04 04:32:26;;;;;;;18.15;17.35;;;;;;;;;;4149559;28;20080;-62
2023/10/04 04:34:29;;;;;;;19.27;18.88;;;;;;;;;;4149558;28;20041;-62
2023/10/04 04:36:34;;;;;;;18.52;17.98;;;;;;;;;;4149454;28;20049;-62
2023/10/04 04:38:38;;;;;;;16.90;16.45;;;;;;;;;;4149427;28;20061;-64
2023/10/04 04:40:44;;;;;;;18.17;17.40;;;;;;;;;;4149391;28;20051;-63
2023/10/04 04:42:47;;;;;;;19.00;18.15;;;;;;;;;;4164404;28;20045;-62
2023/10/04 04:44:49;;;;;;;17.45;16.88;;;;;;;;;;4149204;28;20100;-62
2023/10/04 04:46:51;;;;;;;17.50;17.17;;;;;;;;;;4142220;28;20042;-62
2023/10/04 04:48:55;;;;;;;16.80;16.10;;;;;;;;;;4133365;28;20097;-62
2023/10/04 04:50:58;;;;;;;15.50;14.80;;;;;;;;;;4133098;28;20050;-62
2023/10/04 04:53:08;;;;;;;16.17;15.23;;;;;;;;;;4133168;28;20070;-63
2023/10/04 04:55:11;;;;;;;16.98;16.48;;;;;;;;;;4131911;28;20046;-62
2023/10/04 04:57:13;;;;;;;16.52;15.95;;;;;;;;;;4133110;28;20089;-62
2023/10/04 04:59:16;;;;;;;17.40;17.00;;;;;;;;;;4132883;28;20054;-62
2023/10/04 05:01:17;;;;;;;18.08;17.58;;;;;;;;;;4132736;28;20048;-62
2023/10/04 05:03:19;;;;;;;17.45;17.08;;;;;;;;;;4151598;28;20117;-62
2023/10/04 05:05:21;;;;;;;19.83;18.90;;;;;;;;;;4147894;28;20038;-62
2023/10/04 05:07:27;;;;;;;18.95;18.35;;;;;;;;;;4149171;28;20045;-62
2023/10/04 05:09:29;;;;;;;19.05;18.75;;;;;;;;;;4149030;28;20117;-62
2023/10/04 05:11:31;;;;;;;21.40;20.60;;;;;;;;;;4149100;28;20042;-63
2023/10/04 05:13:33;;;;;;;19.48;18.70;;;;;;;;;;4145060;28;20152;-62
2023/10/04 05:15:38;;;;;;;22.55;21.85;;;;;;;;;;4146811;28;20073;-62
2023/10/04 05:17:42;;;;;;;21.75;20.92;;;;;;;;;;4149024;28;20038;-62
2023/10/04 05:19:43;;;;;;;21.50;20.95;;;;;;;;;;4148532;28;20046;-64
2023/10/04 05:21:45;;;;;;;21.43;20.73;;;;;;;;;;4147673;28;20498;-63
2023/10/04 05:23:47;;;;;;;21.13;20.52;;;;;;;;;;4148717;28;20713;-62
2023/10/04 05:25:49;;;;;;;23.03;22.13;;;;;;;;;;4147951;28;20696;-64
2023/10/04 05:27:51;;;;;;;22.20;21.40;;;;;;;;;;4148863;28;20053;-63
2023/10/04 05:29:52;;;;;;;20.43;19.90;;;;;;;;;;4148674;28;20042;-63
2023/10/04 05:31:54;;;;;;;20.88;19.48;;;;;;;;;;4148774;28;20303;-63
2023/10/04 05:33:56;;;;;;;18.50;17.77;;;;;;;;;;4148790;28;20046;-63
2023/10/04 05:36:01;;;;;;;19.88;18.98;;;;;;;;;;4148596;28;20285;-62
2023/10/04 05:38:04;;;;;;;19.60;18.77;;;;;;;;;;4148665;28;20084;-63
2023/10/04 05:40:12;;;;;;;18.48;17.75;;;;;;;;;;4148409;28;20042;-63
2023/10/04 05:42:13;;;;;;;17.50;17.02;;;;;;;;;;4148481;28;20414;-62
2023/10/04 05:44:15;;;;;;;18.40;17.80;;;;;;;;;;4148537;28;20042;-63
2023/10/04 05:46:16;;;;;;;17.30;16.63;;;;;;;;;;4148297;28;20053;-62
2023/10/04 05:48:19;;;;;;;15.65;15.38;;;;;;;;;;4148483;28;20052;-63
2023/10/04 05:50:22;;;;;;;15.55;15.25;;;;;;;;;;4148493;28;20121;-63
2023/10/04 05:52:23;;;;;;;16.80;16.30;;;;;;;;;;4148429;28;20601;-63
2023/10/04 05:54:25;;;;;;;14.05;13.70;;;;;;;;;;4148517;28;20030;-63
2023/10/04 05:56:27;;;;;;;15.95;15.50;;;;;;;;;;4148433;28;20383;-63
2023/10/04 05:58:31;;;;;;;16.43;15.67;;;;;;;;;;4148375;28;20034;-63
2023/10/04 06:00:40;;;;;;;16.25;15.65;;;;;;;;;;4148056;28;20049;-63
2023/10/04 06:02:43;;;;;;;16.45;15.60;;;;;;;;;;4154259;28;20460;-64
2023/10/04 06:04:47;;;;;;;17.00;15.80;;;;;;;;;;4164470;28;20056;-63
2023/10/04 06:06:49;;;;;;;19.20;18.50;;;;;;;;;;4164565;28;20547;-63
2023/10/04 06:08:54;;;;;;;20.75;19.35;;;;;;;;;;4164754;28;20068;-63
2023/10/04 06:10:59;;;;;;;19.05;18.13;;;;;;;;;;4164407;28;20383;-64
2023/10/04 06:13:01;;;;;;;19.47;18.90;;;;;;;;;;4164824;28;20068;-63
2023/10/04 06:15:04;;;;;;;19.00;17.97;;;;;;;;;;4150545;28;20100;-62
2023/10/04 06:17:06;;;;;;;16.48;15.68;;;;;;;;;;4147977;28;20145;-62
2023/10/04 06:19:08;;;;;;;18.13;17.08;;;;;;;;;;4147957;28;20037;-62
2023/10/04 06:21:27;;;;;;;16.35;15.80;;;;;;;;;;4147918;28;20528;-62
2023/10/04 06:23:32;;;;;;;15.17;14.80;;;;;;;;;;4148152;28;20060;-63
2023/10/04 06:25:34;;;;;;;16.48;15.63;;;;;;;;;;4147935;28;20066;-63
2023/10/04 06:27:36;;;;;;;15.68;15.00;;;;;;;;;;4148119;28;20107;-65
2023/10/04 06:29:38;;;;;;;14.20;14.00;;;;;;;;;;4147944;28;20049;-63
2023/10/04 06:31:41;;;;;;;15.18;14.77;;;;;;;;;;4148212;28;20235;-63
2023/10/04 06:33:43;;;;;;;15.20;14.80;;;;;;;;;;4147949;28;20065;-62
2023/10/04 06:35:46;;;;;;;13.10;12.57;;;;;;;;;;4139582;28;20129;-63
2023/10/04 06:37:47;;;;;;;14.73;14.13;;;;;;;;;;4131495;28;20042;-62
2023/10/04 06:39:49;;;;;;;15.13;13.88;;;;;;;;;;4131444;28;20100;-63
2023/10/04 06:41:52;;;;;;;13.87;13.57;;;;;;;;;;4131821;28;20054;-62
2023/10/04 06:43:56;;;;;;;11.38;11.18;;;;;;;;;;4131420;28;20188;-62
2023/10/04 06:45:59;;;;;;;12.07;11.73;;;;;;;;;;4131571;28;20493;-62
2023/10/04 06:48:01;;;;;;;12.65;12.35;;;;;;;;;;4147793;28;20513;-63
2023/10/04 06:50:05;;;;;;;14.60;13.98;;;;;;;;;;4147541;28;20050;-62
2023/10/04 06:52:07;;;;;;;14.57;14.00;;;;;;;;;;4147944;28;20073;-63
2023/10/04 06:54:09;;;;;;;13.15;12.63;;;;;;;;;;4149062;28;20049;-62
2023/10/04 06:56:12;;;;;;;13.70;13.25;;;;;;;;;;4143248;28;20077;-62
2023/10/04 06:58:15;;;;;;;11.15;10.73;;;;;;;;;;4131544;28;20101;-63
2023/10/04 07:00:18;;;;;;;12.15;11.82;;;;;;;;;;4131368;28;20093;-63
2023/10/04 07:02:20;;;;;;;11.23;10.93;;;;;;;;;;4137423;28;20055;-63
2023/10/04 07:04:21;;;;;;;11.20;10.90;;;;;;;;;;4164083;28;20045;-62
2023/10/04 07:06:23;;;;;;;10.80;10.60;;;;;;;;;;4163963;28;20045;-62
2023/10/04 07:08:31;;;;;;;10.40;9.95;;;;;;;;;;4164208;28;20046;-62
2023/10/04 07:10:33;;;;;;;10.68;10.48;;;;;;;;;;4155650;28;20461;-62
2023/10/04 07:12:37;;;;;;;12.38;11.88;;;;;;;;;;4147680;28;20097;-63
2023/10/04 07:14:38;;;;;;;12.15;11.95;;;;;;;;;;4147464;28;20120;-62
2023/10/04 07:16:40;;;;;;;11.47;11.10;;;;;;;;;;4147593;28;20065;-62
2023/10/04 07:18:42;;;;;;;11.23;10.73;;;;;;;;;;4150051;28;20080;-63
2023/10/04 07:20:43;;;;;;;9.83;9.63;;;;;;;;;;4150728;28;20049;-62
2023/10/04 07:22:46;;;;;;;8.90;8.70;;;;;;;;;;4150934;28;20645;-63
2023/10/04 07:24:48;;;;;;;7.43;7.25;;;;;;;;;;4150991;28;20041;-63
2023/10/04 07:26:55;;;;;;;8.30;7.72;;;;;;;;;;4150613;28;20073;-62
2023/10/04 07:28:58;;;;;;;8.32;7.63;;;;;;;;;;4150526;28;20321;-63
2023/10/04 07:31:00;;;;;;;8.63;8.02;;;;;;;;;;4150592;28;20038;-63
2023/10/04 07:33:02;;;;;;;8.23;7.93;;;;;;;;;;4150603;28;20125;-62
2023/10/04 07:35:06;;;;;;;9.52;9.13;;;;;;;;;;4147652;28;20133;-62
2023/10/04 07:37:08;;;;;;;10.48;10.27;;;;;;;;;;4134354;28;20384;-62
2023/10/04 07:39:15;;;;;;;11.07;10.52;;;;;;;;;;4134283;28;20062;-61
2023/10/04 07:41:17;;;;;;;9.15;8.88;;;;;;;;;;4134214;28;20053;-62
2023/10/04 07:43:19;;;;;;;10.33;10.03;;;;;;;;;;4134383;28;20137;-63
2023/10/04 07:45:22;;;;;;;9.93;9.83;;;;;;;;;;4134091;28;20297;-62
2023/10/04 07:47:24;;;;;;;9.38;9.07;;;;;;;;;;4145461;28;20053;-62
2023/10/04 07:49:26;;;;;;;9.82;9.52;;;;;;;;;;4150516;28;20124;-62
2023/10/04 07:51:28;;;;;;;7.90;7.78;;;;;;;;;;4150342;28;20092;-62
2023/10/04 07:53:30;;;;;;;6.20;6.10;;;;;;;;;;4150277;28;20050;-62
2023/10/04 07:55:33;;;;;;;7.05;6.80;;;;;;;;;;4150343;28;20616;-62
2023/10/04 07:57:37;;;;;;;4.78;4.68;;;;;;;;;;4150153;28;20046;-62
2023/10/04 07:59:41;;;;;;;4.72;4.47;;;;;;;;;;4150049;28;20070;-62
2023/10/04 08:01:43;;;;;;;4.53;4.22;;;;;;;;;;4149872;28;20050;-63
2023/10/04 08:03:45;;;;;;;4.40;4.20;;;;;;;;;;4164884;28;20083;-62
2023/10/04 08:05:46;;;;;;;3.83;3.25;;;;;;;;;;4166654;28;20038;-62
2023/10/04 08:07:49;;;;;;;3.38;3.10;;;;;;;;;;4150387;28;20112;-62
2023/10/04 08:09:52;;;;;;;2.60;2.50;;;;;;;;;;4149980;28;20407;-62
2023/10/04 08:11:54;;;;;;;2.22;2.08;;;;;;;;;;4150234;28;20038;-62
2023/10/04 08:13:57;;;;;;;2.10;2.10;;;;;;;;;;4149986;28;20046;-63
2023/10/04 08:16:01;;;;;;;2.13;2.03;;;;;;;;;;4150086;28;20331;-63
2023/10/04 08:18:04;;;;;;;2.50;2.47;;;;;;;;;;4149874;28;20064;-63
2023/10/04 08:20:06;;;;;;;2.28;2.17;;;;;;;;;;4149854;28;20038;-62
2023/10/04 08:22:09;;;;;;;1.85;1.75;;;;;;;;;;4150056;28;20100;-63
2023/10/04 08:24:11;;;;;;;;;;;;;;;;;;4150011;28;20056;-64
2023/10/04 08:26:14;;;;;;;1.92;1.92;;;;;;;;;;4149917;28;19928;-63
2023/10/04 08:28:16;;;;;;;1.80;1.80;;;;;;;;;;4149456;28;20065;-63
2023/10/04 08:30:18;;;;;;;;;;;;;;;;;;4150095;28;20100;-63
2023/10/04 08:32:20;;;;;;;1.90;1.90;;;;;;;;;;4149523;28;20400;-63
2023/10/04 08:34:24;;;;;;;2.08;1.98;;;;;;;;;;4149584;28;20506;-63
2023/10/04 08:36:26;;;;;;;2.55;1.70;;;;;;;;;;4136051;28;20070;-64
2023/10/04 08:38:28;;;;;;;1.63;1.63;;;;;;;;;;4133288;28;20054;-63
2023/10/04 08:40:30;;;;;;;1.73;1.63;;;;;;;;;;4131779;28;20093;-63
2023/10/04 08:42:33;;;;;;;1.38;1.38;;;;;;;;;;4133688;28;20297;-63
2023/10/04 08:44:35;;;;;;;1.83;1.83;;;;;;;;;;4133312;28;20053;-63
2023/10/04 08:46:39;;;;;;;1.73;1.65;;;;;;;;;;4138400;28;20518;-63
2023/10/04 08:48:43;;;;;;;1.83;1.73;;;;;;;;;;4149340;28;20057;-63
2023/10/04 08:50:54;;;;;;;2.20;1.70;;;;;;;;;;4149300;28;20046;-63
2023/10/04 08:53:23;;;;;;;1.80;1.20;;;;;;;;;;4149351;28;20042;-64
2023/10/04 08:55:25;;;;;;;1.33;1.33;;;;;;;;;;4147183;28;20534;-63
2023/10/04 08:57:28;;;;;;;1.23;1.20;;;;;;;;;;4149300;28;20038;-63
2023/10/04 08:59:32;;;;;;;1.60;1.50;;;;;;;;;;4149358;28;20104;-63
2023/10/04 09:01:34;;;;;;;1.35;1.20;;;;;;;;;;4149102;28;20084;-63
2023/10/04 09:03:38;;;;;;;1.17;1.17;;;;;;;;;;4149999;28;20054;-64
2023/10/04 09:05:46;;;;;;;1.30;1.20;;;;;;;;;;4148477;28;20528;-62
2023/10/04 09:07:49;;;;;;;1.50;1.50;;;;;;;;;;4148341;28;20053;-63
2023/10/04 09:09:56;;;;;;;1.10;1.10;;;;;;;;;;4149061;28;20395;-62
2023/10/04 09:11:58;;;;;;;1.10;1.10;;;;;;;;;;4149016;28;20498;-62
2023/10/04 09:13:59;;;;;;;1.58;1.40;;;;;;;;;;4148948;28;20049;-63
2023/10/04 09:16:16;;;;;;;1.23;1.23;;;;;;;;;;4149039;28;20034;-63
2023/10/04 09:18:28;;;;;;;1.20;1.10;;;;;;;;;;4148016;28;20042;-63
2023/10/04 09:20:31;;;;;;;2.72;1.20;;;;;;;;;;4144082;28;20040;-63
2023/10/04 09:22:33;;;;;;;1.60;1.50;;;;;;;;;;4142102;28;20096;-63
2023/10/04 09:24:37;;;;;;;1.40;1.20;;;;;;;;;;4143605;28;20410;-64
2023/10/04 09:26:42;;;;;;;5.47;1.13;;;;;;;;;;4144797;28;20045;-63
2023/10/04 09:28:46;;;;;;;1.20;1.20;;;;;;;;;;4147854;28;20030;-63
2023/10/04 09:30:47;;;;;;;2.25;1.20;;;;;;;;;;4144769;28;20113;-62
2023/10/04 09:32:51;;;;;;;3.00;1.17;;;;;;;;;;4143865;28;20045;-64
2023/10/04 09:34:57;;;;;;;2.03;1.20;;;;;;;;;;4147282;28;20083;-63
2023/10/04 09:36:59;;;;;;;3.00;1.20;;;;;;;;;;4132904;28;20045;-65
2023/10/04 09:39:08;;;;;;;1.10;1.10;;;;;;;;;;4141672;28;20042;-63
2023/10/04 09:41:10;;;;;;;1.95;1.17;;;;;;;;;;4144300;28;20042;-64
2023/10/04 09:43:12;;;;;;;1.10;1.00;;;;;;;;;;4150159;28;20041;-64
2023/10/04 09:45:14;;;;;;;1.55;1.00;;;;;;;;;;4141540;28;20100;-65
2023/10/04 09:47:16;;;;;;;1.80;1.10;;;;;;;;;;4142405;28;20073;-64
2023/10/04 09:49:17;;;;;;;2.05;1.10;;;;;;;;;;4145201;28;20037;-64
2023/10/04 09:51:19;;;;;;;3.03;1.00;;;;;;;;;;4148291;28;20052;-64
2023/10/04 09:53:22;;;;;;;;;;;;;;;;;;4147507;28;20056;-63
2023/10/04 09:55:25;;;;;;;1.10;1.00;;;;;;;;;;4137941;28;19965;-63
2023/10/04 09:57:31;;;;;;;2.05;1.08;;;;;;;;;;4145386;28;20513;-63
2023/10/04 09:59:37;;;;;;;1.00;1.00;;;;;;;;;;4143641;28;20096;-64
2023/10/04 10:01:39;;;;;;;0.95;0.95;;;;;;;;;;4146954;28;20058;-63
2023/10/04 10:03:55;;;;;;;2.05;1.00;;;;;;;;;;4144114;28;20038;-63
2023/10/04 10:05:59;;;;;;;0.80;0.80;;;;;;;;;;4141327;28;20564;-63
2023/10/04 10:08:06;;;;;;;1.27;1.17;;;;;;;;;;4143855;28;20041;-63
2023/10/04 10:10:12;;;;;;;1.10;1.05;;;;;;;;;;4148382;28;20156;-63
2023/10/04 10:12:17;;;;;;;0.80;0.80;;;;;;;;;;4139964;28;20064;-64
2023/10/04 10:14:19;;;;;;;;;;;;;;;;;;4147158;28;20498;-63
2023/10/04 10:16:21;;;;;;;3.42;1.20;;;;;;;;;;4142424;28;20393;-63
2023/10/04 10:18:23;;;;;;;1.10;1.10;;;;;;;;;;4146074;28;20045;-63
2023/10/04 10:20:26;;;;;;;2.05;0.82;;;;;;;;;;4148018;28;20153;-63
2023/10/04 10:22:27;;;;;;;;;;;;;;;;;;4146791;28;20061;-63
2023/10/04 10:24:29;;;;;;;0.80;0.80;;;;;;;;;;4141521;28;19979;-64
2023/10/04 10:26:33;;;;;;;0.80;0.80;;;;;;;;;;4146795;28;20042;-63
2023/10/04 10:28:35;;;;;;;1.67;0.85;;;;;;;;;;4147711;28;20046;-63
2023/10/04 10:30:36;;;;;;;0.90;0.90;;;;;;;;;;4144724;28;20042;-64
2023/10/04 10:32:48;;;;;;;1.13;1.13;;;;;;;;;;4147580;28;20104;-63
2023/10/04 10:34:52;;;;;;;2.83;0.80;;;;;;;;;;4142503;28;20044;-63
2023/10/04 10:37:15;;;;;;;0.80;0.80;;;;;;;;;;4131659;28;20125;-63
2023/10/04 10:39:20;;;;;;;0.90;0.90;;;;;;;;;;4145934;28;20084;-64
2023/10/04 10:41:28;;;;;;;2.00;0.80;;;;;;;;;;4142231;28;20125;-63
2023/10/04 10:43:29;;;;;;;1.63;0.80;;;;;;;;;;4146590;28;20132;-63
2023/10/04 10:45:31;;;;;;;1.45;0.82;;;;;;;;;;4139669;28;20088;-64
2023/10/04 10:47:33;;;;;;;1.77;0.80;;;;;;;;;;4145134;28;20049;-64
2023/10/04 10:50:02;;;;;;;1.92;0.90;;;;;;;;;;4130413;28;20050;-64
2023/10/04 10:52:03;;;;;;;7.53;0.82;;;;;;;;;;4134816;28;20042;-66
2023/10/04 10:54:05;;;;;;;0.75;0.75;;;;;;;;;;4137619;28;20098;-64
2023/10/04 10:56:07;;;;;;;0.70;0.70;;;;;;;;;;4146611;28;20038;-63
2023/10/04 10:58:09;;;;;;;0.80;0.80;;;;;;;;;;4147492;28;20030;-63
2023/10/04 11:00:14;;;;;;;0.70;0.70;;;;;;;;;;4146582;28;20042;-63
2023/10/04 11:02:16;;;;;;;0.80;0.80;;;;;;;;;;4146728;28;20149;-64
2023/10/04 11:04:18;;;;;;;0.70;0.70;;;;;;;;;;4134441;28;20060;-63
2023/10/04 11:06:20;;;;;;;0.80;0.80;;;;;;;;;;4141287;28;20034;-63
2023/10/04 11:08:22;;;;;;;0.70;0.70;;;;;;;;;;4146590;28;20050;-63
2023/10/04 11:10:25;;;;;;;0.75;0.75;;;;;;;;;;4140948;28;20076;-64
2023/10/04 11:12:33;;;;;;;1.20;1.10;;;;;;;;;;4147637;28;20072;-64
2023/10/04 11:14:36;;;;;;;2.25;0.77;;;;;;;;;;4146326;28;20038;-63
2023/10/04 11:16:38;;;;;;;1.33;0.70;;;;;;;;;;4139763;28;20069;-63
2023/10/04 11:18:44;;;;;;;0.77;0.73;;;;;;;;;;4145235;28;20054;-64
2023/10/04 11:20:47;;;;;;;1.35;0.80;;;;;;;;;;4141282;28;20128;-63
2023/10/04 11:22:49;;;;;;;;;;;;;;;;;;4144162;28;20442;-65
2023/10/04 11:24:51;;;;;;;1.65;0.60;;;;;;;;;;4140978;28;19952;-63
2023/10/04 11:26:56;;;;;;;0.65;0.65;;;;;;;;;;4141030;28;20053;-63
2023/10/04 11:28:58;;;;;;;0.60;0.60;;;;;;;;;;4145566;28;20044;-63
2023/10/04 11:31:00;;;;;;;;;;;;;;;;;;4139813;28;20050;-65
2023/10/04 11:33:03;;;;;;;2.03;0.60;;;;;;;;;;4139833;28;20123;-65
2023/10/04 11:35:08;;;;;;;3.28;0.70;;;;;;;;;;4139146;28;20085;-64
2023/10/04 11:37:10;;;;;;;8.85;1.00;;;;;;;;;;4143929;28;20038;-63
2023/10/04 11:39:18;;;;;;;1.10;0.60;;;;;;;;;;4138517;28;20046;-64
2023/10/04 11:41:21;;;;;;;1.52;0.70;;;;;;;;;;4142247;28;20045;-64
2023/10/04 11:43:24;;;;;;;3.80;1.00;;;;;;;;;;4142918;28;20042;-64
2023/10/04 11:45:27;;;;;;;2.13;0.70;;;;;;;;;;4143331;28;20037;-62
2023/10/04 11:47:32;;;;;;;0.60;0.60;;;;;;;;;;4139677;28;20041;-61
2023/10/04 11:49:35;;;;;;;1.67;0.60;;;;;;;;;;4143943;28;20044;-61
2023/10/04 11:51:37;;;;;;;1.67;0.60;;;;;;;;;;4147051;28;20046;-61
2023/10/04 11:53:42;;;;;;;0.60;0.60;;;;;;;;;;4147202;28;20050;-61
2023/10/04 11:55:44;;;;;;;0.93;0.73;;;;;;;;;;4147060;28;20461;-61
2023/10/04 11:57:47;;;;;;;0.50;0.50;;;;;;;;;;4140010;28;20034;-61
2023/10/04 11:59:49;;;;;;;0.98;0.60;;;;;;;;;;4147114;28;20038;-61
2023/10/04 12:01:55;;;;;;;;;;;;;;;;;;4147258;28;20054;-62
2023/10/04 12:03:56;;;;;;;0.93;0.60;;;;;;;;;;4164190;28;19947;-63
2023/10/04 12:05:59;;;;;;;;;;;;;;;;;;4149529;28;20049;-62
2023/10/04 12:08:01;;;;;;;0.60;0.60;;;;;;;;;;4149110;28;19948;-62
2023/10/04 12:10:03;;;;;;;0.60;0.60;;;;;;;;;;4133829;28;20054;-62
2023/10/04 12:12:07;;;;;;;;;;;;;;;;;;4134014;28;20042;-61
2023/10/04 12:14:09;;;;;;;3.85;0.90;;;;;;;;;;4133713;28;20374;-61
2023/10/04 12:16:11;;;;;;;3.25;0.70;;;;;;;;;;4137415;28;20045;-61